Time;durP1;ratioP1;P1;durP2;ratioP2;P2;SDS_P1;SDS_P2;PMS_P1;PMS_P2;Temp;Humidity;BMP_temperature;BMP_pressure;BME280_temperature;BME280_humidity;BME280_pressure;Samples;Min_cycle;Max_cycle;Signal;HPM_P1;HPM_P2
2021/05/02 00:01:47;;;;;;;36.45;25.83;;;6.60;99.90;;;;;;5011633;28;20109;-84
2021/05/02 00:04:13;;;;;;;40.33;26.60;;;6.60;99.90;;;;;;5011033;28;20141;-84
2021/05/02 00:06:38;;;;;;;33.92;24.05;;;6.60;99.90;;;;;;5026915;28;20109;-84
2021/05/02 00:09:04;;;;;;;38.42;26.77;;;6.60;99.90;;;;;;5011682;28;20110;-83
2021/05/02 00:11:30;;;;;;;42.00;28.75;;;6.60;99.90;;;;;;5026743;28;20474;-84
2021/05/02 00:13:55;;;;;;;39.80;27.35;;;6.60;99.90;;;;;;5010977;28;20026;-83
2021/05/02 00:16:21;;;;;;;41.28;27.60;;;6.70;99.90;;;;;;5010435;28;20026;-84
2021/05/02 00:18:47;;;;;;;40.63;27.33;;;6.70;99.90;;;;;;5011658;28;20030;-84
2021/05/02 00:21:13;;;;;;;39.20;28.35;;;6.70;99.90;;;;;;5011686;28;20022;-84
2021/05/02 00:23:41;;;;;;;42.97;29.83;;;6.70;99.90;;;;;;5009767;28;20061;-82
2021/05/02 00:26:07;;;;;;;37.92;26.85;;;6.70;99.90;;;;;;5011347;28;20496;-84
2021/05/02 00:28:35;;;;;;;41.38;26.83;;;6.70;99.90;;;;;;5026861;28;20756;-84
2021/05/02 00:31:05;;;;;;;37.28;26.52;;;6.70;99.90;;;;;;5011545;28;20080;-83
2021/05/02 00:33:32;;;;;;;42.80;27.65;;;6.70;99.90;;;;;;5011734;28;20030;-83
2021/05/02 00:35:59;;;;;;;48.85;31.95;;;6.60;99.90;;;;;;5029901;28;20056;-84
2021/05/02 00:38:24;;;;;;;46.40;31.90;;;6.60;99.90;;;;;;5030479;28;20117;-83
2021/05/02 00:40:55;;;;;;;46.78;30.95;;;6.60;99.90;;;;;;5015289;28;20101;-83
2021/05/02 00:43:35;;;;;;;53.55;33.90;;;6.60;99.90;;;;;;5015175;28;20026;-83
2021/05/02 00:46:35;;;;;;;45.50;30.27;;;6.60;99.90;;;;;;5013348;28;20034;-83
2021/05/02 00:49:30;;;;;;;45.35;30.98;;;6.50;99.90;;;;;;5003523;28;20030;-83
2021/05/02 00:51:58;;;;;;;;;;;6.50;99.90;;;;;;5015274;28;20097;-84
2021/05/02 00:54:46;;;;;;;47.10;29.17;;;6.50;99.90;;;;;;5029344;28;20501;-84
2021/05/02 00:57:18;;;;;;;43.92;28.20;;;6.50;99.90;;;;;;5013625;28;20661;-84
2021/05/02 00:59:49;;;;;;;45.33;29.35;;;6.50;99.90;;;;;;5014183;28;20488;-83
2021/05/02 01:02:16;;;;;;;39.58;27.77;;;6.50;99.90;;;;;;5009247;28;20101;-83
2021/05/02 01:04:44;;;;;;;43.70;30.23;;;6.50;99.90;;;;;;5012907;28;20053;-83
2021/05/02 01:07:40;;;;;;;45.78;29.52;;;6.40;99.90;;;;;;5029894;28;20084;-83
2021/05/02 01:10:09;;;;;;;50.15;32.17;;;6.40;99.90;;;;;;5023412;28;20513;-84
2021/05/02 01:12:43;;;;;;;45.92;30.25;;;6.40;99.90;;;;;;5013177;28;20030;-83
2021/05/02 01:15:14;;;;;;;44.10;29.33;;;6.40;99.90;;;;;;5013938;28;20036;-83
2021/05/02 01:17:45;;;;;;;41.00;28.83;;;6.40;99.90;;;;;;5014621;28;20097;-83
2021/05/02 01:20:13;;;;;;;41.28;28.13;;;6.30;99.90;;;;;;5029482;28;20021;-83
2021/05/02 01:22:42;;;;;;;43.60;30.13;;;6.30;99.90;;;;;;5029453;28;20112;-84
2021/05/02 01:25:09;;;;;;;40.35;27.35;;;6.30;99.90;;;;;;5013753;28;20044;-83
2021/05/02 01:27:34;;;;;;;38.20;25.35;;;6.30;99.90;;;;;;5014156;28;20026;-84
2021/05/02 01:30:02;;;;;;;33.55;24.88;;;6.30;99.90;;;;;;5014335;28;20033;-84
2021/05/02 01:32:30;;;;;;;32.92;24.35;;;6.30;99.90;;;;;;5014119;28;20500;-84
2021/05/02 01:34:57;;;;;;;36.35;26.13;;;6.30;99.90;;;;;;5013393;28;20033;-84
2021/05/02 01:37:23;;;;;;;38.92;24.88;;;6.30;99.90;;;;;;5029221;28;20379;-84
2021/05/02 01:39:49;;;;;;;40.55;25.92;;;6.40;99.90;;;;;;5012915;28;20105;-83
2021/05/02 01:42:14;;;;;;;37.30;25.40;;;6.30;99.90;;;;;;5029267;28;20022;-84
2021/05/02 01:44:40;;;;;;;38.72;27.40;;;6.30;99.90;;;;;;5027898;28;20042;-84
2021/05/02 01:47:17;;;;;;;34.42;24.63;;;6.30;99.90;;;;;;5011845;28;20025;-83
2021/05/02 01:49:48;;;;;;;34.33;23.75;;;6.40;99.90;;;;;;5014047;28;20439;-84
2021/05/02 01:52:17;;;;;;;28.20;21.88;;;6.40;99.90;;;;;;5013699;28;20482;-84
2021/05/02 01:54:43;;;;;;;31.55;22.58;;;6.30;99.90;;;;;;5023179;28;20057;-83
2021/05/02 01:57:09;;;;;;;30.38;21.77;;;6.30;99.90;;;;;;5028995;28;20482;-84
2021/05/02 01:59:36;;;;;;;31.73;23.08;;;6.30;99.90;;;;;;5028791;28;20033;-84
2021/05/02 02:02:02;;;;;;;33.90;23.95;;;6.30;99.90;;;;;;5028671;28;20117;-83
2021/05/02 02:04:30;;;;;;;36.35;25.23;;;6.30;99.90;;;;;;5013166;28;20034;-84
2021/05/02 02:06:57;;;;;;;41.28;27.25;;;6.30;99.90;;;;;;5013386;28;20028;-84
2021/05/02 02:09:23;;;;;;;86.78;30.70;;;6.30;99.90;;;;;;5012238;28;20030;-84
2021/05/02 02:11:52;;;;;;;97.90;25.95;;;6.30;99.90;;;;;;5028683;28;20058;-84
2021/05/02 02:14:18;;;;;;;27.92;21.65;;;6.30;99.90;;;;;;5012500;28;20529;-84
2021/05/02 02:16:44;;;;;;;38.75;24.83;;;6.30;99.90;;;;;;5013391;28;20429;-83
2021/05/02 02:19:10;;;;;;;30.92;23.45;;;6.20;99.90;;;;;;5013354;28;20014;-85
2021/05/02 02:21:36;;;;;;;28.50;22.02;;;6.30;99.90;;;;;;5012857;28;20537;-84
2021/05/02 02:24:43;;;;;;;27.23;21.42;;;6.20;99.90;;;;;;5012727;28;20490;-84
2021/05/02 02:27:09;;;;;;;26.60;20.30;;;6.30;99.90;;;;;;5028486;28;20033;-83
2021/05/02 02:29:46;;;;;;;30.27;22.45;;;6.20;99.90;;;;;;5012997;28;20037;-84
2021/05/02 02:32:14;;;;;;;33.67;24.33;;;6.10;99.90;;;;;;5011807;28;20030;-84
2021/05/02 02:34:45;;;;;;;39.33;25.45;;;6.10;99.90;;;;;;5012380;28;20033;-83
2021/05/02 02:37:21;;;;;;;33.30;24.73;;;6.10;99.90;;;;;;5012812;28;20475;-83
2021/05/02 02:39:59;;;;;;;34.03;24.23;;;6.10;99.90;;;;;;5011959;28;20022;-83
2021/05/02 02:42:25;;;;;;;30.70;23.63;;;6.10;99.90;;;;;;5012396;28;20483;-83
2021/05/02 02:45:02;;;;;;;28.73;22.27;;;6.20;99.90;;;;;;5027170;28;20091;-84
2021/05/02 02:47:36;;;;;;;81.22;24.95;;;6.20;99.90;;;;;;5011688;28;20036;-84
2021/05/02 02:50:07;;;;;;;41.35;24.10;;;6.20;99.90;;;;;;5028119;28;20034;-83
2021/05/02 02:52:51;;;;;;;26.23;21.42;;;6.20;99.90;;;;;;5011570;28;20053;-84
2021/05/02 02:55:19;;;;;;;26.60;21.90;;;6.20;99.90;;;;;;5011923;28;20026;-84
2021/05/02 02:57:51;;;;;;;25.55;21.50;;;6.10;99.90;;;;;;5012275;28;20025;-84
2021/05/02 03:00:25;;;;;;;32.35;22.98;;;6.10;99.90;;;;;;5027729;28;20113;-84
2021/05/02 03:03:12;;;;;;;29.42;23.63;;;6.10;99.90;;;;;;5027828;28;20017;-84
2021/05/02 03:05:38;;;;;;;26.77;22.30;;;6.10;99.90;;;;;;5027297;28;20029;-83
2021/05/02 03:08:06;;;;;;;27.45;22.15;;;6.10;99.90;;;;;;5012509;28;20034;-83
2021/05/02 03:10:33;;;;;;;28.40;24.25;;;6.10;99.90;;;;;;5012518;28;20033;-84
2021/05/02 03:12:59;;;;;;;34.88;26.35;;;6.10;99.90;;;;;;5027664;28;20094;-84
2021/05/02 03:15:26;;;;;;;27.58;23.30;;;6.10;99.90;;;;;;5011708;28;20030;-83
2021/05/02 03:18:05;;;;;;;28.48;22.95;;;6.10;99.90;;;;;;5012453;28;20022;-84
2021/05/02 03:20:38;;;;;;;28.45;23.52;;;6.10;99.90;;;;;;5027582;28;20018;-84
2021/05/02 03:23:08;;;;;;;29.63;23.85;;;6.00;99.90;;;;;;5012181;28;20036;-84
2021/05/02 03:25:39;;;;;;;26.15;22.17;;;6.00;99.90;;;;;;5026993;28;20584;-84
2021/05/02 03:28:07;;;;;;;26.75;22.13;;;6.00;99.90;;;;;;5012359;28;20055;-84
2021/05/02 03:30:34;;;;;;;31.23;25.42;;;6.00;99.90;;;;;;5012304;28;20109;-84
2021/05/02 03:33:08;;;;;;;31.10;25.10;;;6.00;99.90;;;;;;5027361;28;20021;-84
2021/05/02 03:35:36;;;;;;;31.25;24.73;;;6.00;99.90;;;;;;5011038;28;20117;-84
2021/05/02 03:38:16;;;;;;;31.30;25.50;;;6.00;99.90;;;;;;5027228;28;20116;-84
2021/05/02 03:40:43;;;;;;;31.25;24.85;;;6.00;99.90;;;;;;5012255;28;20021;-83
2021/05/02 03:43:08;;;;;;;31.95;25.35;;;6.10;99.90;;;;;;5011963;28;20053;-83
2021/05/02 03:45:34;;;;;;;31.30;26.02;;;6.20;99.90;;;;;;5011256;28;20057;-84
2021/05/02 03:48:00;;;;;;;49.97;26.50;;;6.20;99.90;;;;;;5011943;28;20037;-84
2021/05/02 03:50:25;;;;;;;68.32;29.23;;;6.20;99.90;;;;;;5011847;28;20081;-83
2021/05/02 03:52:51;;;;;;;33.53;27.13;;;6.20;99.90;;;;;;5010525;28;20117;-84
2021/05/02 03:55:16;;;;;;;33.30;25.15;;;6.20;99.90;;;;;;5011038;28;20119;-84
2021/05/02 03:57:42;;;;;;;44.28;26.02;;;6.30;99.90;;;;;;5026951;28;20140;-84
2021/05/02 04:00:08;;;;;;;47.83;27.90;;;6.20;99.90;;;;;;5027074;28;20076;-84
2021/05/02 04:02:34;;;;;;;36.53;25.38;;;6.30;99.90;;;;;;5010129;28;20088;-84
2021/05/02 04:04:59;;;;;;;39.25;25.83;;;6.20;99.90;;;;;;5022789;28;20115;-84
2021/05/02 04:07:25;;;;;;;41.20;28.60;;;6.30;99.90;;;;;;5026406;28;20037;-84
2021/05/02 04:09:50;;;;;;;60.92;28.25;;;6.20;99.90;;;;;;5014176;28;20375;-83
2021/05/02 04:12:16;;;;;;;35.42;25.08;;;6.30;99.90;;;;;;5014464;28;20029;-84
2021/05/02 04:14:42;;;;;;;36.40;27.63;;;6.30;99.90;;;;;;5030191;28;20044;-84
2021/05/02 04:17:13;;;;;;;59.33;29.65;;;6.30;99.90;;;;;;5015689;28;20108;-84
2021/05/02 04:19:40;;;;;;;36.33;28.67;;;6.40;99.90;;;;;;5031068;28;20085;-83
2021/05/02 04:22:07;;;;;;;96.95;28.92;;;6.30;99.90;;;;;;5014104;28;20058;-83
2021/05/02 04:24:33;;;;;;;256.33;36.53;;;6.50;99.90;;;;;;5014918;28;20018;-84
2021/05/02 04:27:00;;;;;;;59.20;31.33;;;6.50;99.90;;;;;;5030747;28;20100;-83
2021/05/02 04:29:27;;;;;;;59.80;32.13;;;6.50;99.90;;;;;;5015422;28;20029;-84
2021/05/02 04:31:53;;;;;;;70.97;33.95;;;6.60;99.90;;;;;;5015325;28;20018;-84
2021/05/02 04:34:20;;;;;;;74.93;35.63;;;6.60;99.90;;;;;;5014606;28;20040;-84
2021/05/02 04:36:46;;;;;;;143.63;39.30;;;6.60;99.90;;;;;;5015265;28;20028;-84
2021/05/02 04:39:12;;;;;;;104.32;35.17;;;6.70;99.90;;;;;;5015291;28;20058;-84
2021/05/02 04:41:37;;;;;;;87.78;35.30;;;6.70;99.90;;;;;;5015279;28;20046;-84
2021/05/02 04:44:03;;;;;;;99.05;36.83;;;6.70;99.90;;;;;;5014481;28;20026;-83
2021/05/02 04:46:29;;;;;;;149.07;43.35;;;6.70;99.90;;;;;;5030392;28;20026;-84
2021/05/02 04:48:55;;;;;;;193.55;45.75;;;6.70;99.90;;;;;;5015140;28;20030;-84
2021/05/02 04:51:21;;;;;;;81.25;37.80;;;6.80;99.90;;;;;;5014878;28;20121;-84
2021/05/02 04:53:47;;;;;;;154.68;45.28;;;6.80;99.90;;;;;;5014258;28;20037;-83
2021/05/02 04:56:13;;;;;;;110.20;42.30;;;6.80;99.90;;;;;;5014940;28;20403;-84
2021/05/02 04:58:39;;;;;;;142.93;42.60;;;6.90;99.90;;;;;;5030092;28;20394;-84
2021/05/02 05:01:06;;;;;;;151.73;46.20;;;6.80;99.90;;;;;;5030145;28;20029;-83
2021/05/02 05:03:32;;;;;;;141.13;42.55;;;6.80;99.90;;;;;;5028455;28;20029;-84
2021/05/02 05:05:58;;;;;;;114.25;42.53;;;6.80;99.90;;;;;;5014222;28;20030;-84
2021/05/02 05:08:23;;;;;;;63.40;40.85;;;6.90;99.90;;;;;;5029952;28;20379;-84
2021/05/02 05:10:49;;;;;;;58.70;37.28;;;6.90;99.90;;;;;;5014810;28;20440;-83
2021/05/02 05:13:14;;;;;;;58.97;38.05;;;7.00;99.90;;;;;;5029837;28;20494;-84
2021/05/02 05:15:40;;;;;;;72.22;40.42;;;7.00;99.90;;;;;;5029095;28;20053;-84
2021/05/02 05:18:05;;;;;;;61.15;40.63;;;7.00;99.90;;;;;;5014471;28;20026;-83
2021/05/02 05:20:31;;;;;;;69.32;41.03;;;7.00;99.90;;;;;;5029391;28;20376;-84
2021/05/02 05:22:57;;;;;;;61.05;40.75;;;7.10;99.90;;;;;;5013009;28;20653;-84
2021/05/02 05:25:22;;;;;;;55.13;39.38;;;7.10;99.90;;;;;;5012556;28;20052;-84
2021/05/02 05:27:48;;;;;;;61.15;39.53;;;7.10;99.90;;;;;;5029665;28;20034;-84
2021/05/02 05:30:14;;;;;;;57.78;37.63;;;7.20;99.90;;;;;;5029931;28;20026;-84
2021/05/02 05:32:40;;;;;;;55.67;37.53;;;7.20;99.90;;;;;;5029603;28;20030;-84
2021/05/02 05:35:06;;;;;;;65.25;39.72;;;7.20;99.90;;;;;;5028729;28;20029;-84
2021/05/02 05:37:32;;;;;;;168.70;39.92;;;7.20;99.90;;;;;;5029315;28;20402;-84
2021/05/02 05:39:58;;;;;;;49.70;36.03;;;7.20;99.90;;;;;;5014214;28;20033;-84
2021/05/02 05:42:24;;;;;;;53.75;37.58;;;7.20;99.90;;;;;;5029254;28;20057;-84
2021/05/02 05:44:49;;;;;;;50.55;37.55;;;7.10;99.90;;;;;;5012162;28;20030;-84
2021/05/02 05:47:15;;;;;;;49.60;33.20;;;7.10;99.90;;;;;;5013860;28;20030;-83
2021/05/02 05:49:41;;;;;;;60.17;39.80;;;7.20;99.90;;;;;;5029351;28;20026;-84
2021/05/02 05:52:08;;;;;;;49.80;36.33;;;7.20;99.90;;;;;;5013780;28;20088;-84
2021/05/02 05:54:38;;;;;;;54.20;37.45;;;7.20;99.90;;;;;;5013036;28;20084;-84
2021/05/02 05:57:04;;;;;;;54.28;36.75;;;7.20;99.90;;;;;;5029004;28;20513;-84
2021/05/02 05:59:29;;;;;;;52.42;36.38;;;7.40;99.90;;;;;;5029102;28;20026;-84
2021/05/02 06:01:55;;;;;;;50.22;35.08;;;7.40;99.90;;;;;;5010455;28;20026;-83
2021/05/02 06:04:21;;;;;;;52.20;38.03;;;7.60;99.90;;;;;;5027916;28;20487;-84
2021/05/02 06:06:47;;;;;;;42.63;32.88;;;7.70;99.90;;;;;;5013396;28;20030;-84
2021/05/02 06:09:13;;;;;;;49.00;35.42;;;7.70;99.90;;;;;;5028740;28;20026;-83
2021/05/02 06:11:38;;;;;;;51.97;35.65;;;7.70;99.90;;;;;;5012025;28;20040;-84
2021/05/02 06:14:05;;;;;;;47.05;34.35;;;7.70;99.90;;;;;;5027929;28;20490;-84
2021/05/02 06:16:31;;;;;;;50.17;36.28;;;7.80;99.90;;;;;;5013331;28;20026;-84
2021/05/02 06:18:58;;;;;;;52.28;36.63;;;7.80;99.90;;;;;;5028548;28;20458;-84
2021/05/02 06:21:24;;;;;;;49.05;35.40;;;7.90;99.90;;;;;;5013050;28;20084;-84
2021/05/02 06:23:51;;;;;;;50.97;37.28;;;8.00;99.90;;;;;;5012610;28;20069;-84
2021/05/02 06:26:19;;;;;;;48.95;36.33;;;7.90;99.90;;;;;;5013210;28;20105;-84
2021/05/02 06:28:46;;;;;;;55.20;37.20;;;8.00;99.90;;;;;;5028317;28;20516;-84
2021/05/02 06:31:12;;;;;;;51.20;36.80;;;8.10;99.90;;;;;;5027669;28;20029;-84
2021/05/02 06:33:38;;;;;;;53.90;38.40;;;8.20;99.90;;;;;;5011315;28;20552;-83
2021/05/02 06:36:04;;;;;;;52.83;38.97;;;8.20;99.90;;;;;;5010249;28;20037;-83
2021/05/02 06:38:30;;;;;;;72.75;48.13;;;8.30;99.90;;;;;;5008002;28;20390;-83
2021/05/02 06:40:56;;;;;;;103.10;66.78;;;8.40;99.90;;;;;;5003501;28;20030;-82
2021/05/02 06:43:22;;;;;;;70.45;49.28;;;8.50;99.90;;;;;;5001385;28;20556;-83
2021/05/02 06:45:48;;;;;;;66.43;45.03;;;8.50;99.90;;;;;;5005544;28;20056;-82
2021/05/02 06:48:13;;;;;;;87.43;56.17;;;8.60;99.90;;;;;;5005690;28;20122;-82
2021/05/02 06:50:39;;;;;;;60.80;40.33;;;8.80;99.90;;;;;;5003742;28;20111;-82
2021/05/02 06:53:05;;;;;;;50.53;33.03;;;8.80;99.90;;;;;;4996988;28;20041;-82
2021/05/02 06:55:30;;;;;;;56.80;37.25;;;8.90;99.90;;;;;;4990563;28;21608;-82
2021/05/02 06:57:59;;;;;;;51.92;34.65;;;9.00;99.90;;;;;;4995556;28;20029;-83
2021/05/02 07:00:24;;;;;;;89.50;42.42;;;9.00;99.90;;;;;;4997139;28;20497;-81
2021/05/02 07:02:50;;;;;;;56.58;32.80;;;9.10;99.90;;;;;;4997426;28;20018;-82
2021/05/02 07:05:15;;;;;;;96.20;37.95;;;9.20;99.90;;;;;;5004509;28;20025;-82
2021/05/02 07:07:41;;;;;;;61.35;34.42;;;9.20;99.90;;;;;;5009225;28;20522;-82
2021/05/02 07:10:07;;;;;;;67.03;34.47;;;9.40;99.90;;;;;;4990048;28;20052;-82
2021/05/02 07:12:33;;;;;;;63.10;33.58;;;9.60;99.90;;;;;;5006768;28;20025;-81
2021/05/02 07:14:58;;;;;;;82.93;62.05;;;9.70;99.90;;;;;;4997231;28;20033;-81
2021/05/02 07:17:24;;;;;;;44.05;30.73;;;9.70;99.90;;;;;;4990099;28;20050;-81
2021/05/02 07:19:50;;;;;;;41.85;26.63;;;9.70;99.90;;;;;;4993414;28;20046;-81
2021/05/02 07:22:17;;;;;;;40.30;27.65;;;9.80;99.90;;;;;;4997583;28;20057;-81
2021/05/02 07:24:43;;;;;;;45.25;29.50;;;9.90;99.90;;;;;;4988637;28;20023;-83
2021/05/02 07:27:09;;;;;;;46.13;30.48;;;10.10;99.90;;;;;;4998737;28;20390;-81
2021/05/02 07:29:34;;;;;;;36.67;27.50;;;10.30;99.90;;;;;;5004040;28;20029;-83
2021/05/02 07:32:00;;;;;;;37.75;26.50;;;10.20;99.90;;;;;;4990416;28;20030;-80
2021/05/02 07:34:26;;;;;;;41.70;27.85;;;10.40;99.90;;;;;;5002245;28;20036;-81
2021/05/02 07:36:54;;;;;;;38.00;25.42;;;10.50;99.90;;;;;;4990179;28;20109;-83
2021/05/02 07:39:20;;;;;;;33.88;24.77;;;10.80;99.90;;;;;;5003898;28;20045;-83
2021/05/02 07:41:46;;;;;;;35.67;26.25;;;10.50;99.90;;;;;;5001789;28;20483;-82
2021/05/02 07:44:11;;;;;;;34.33;25.70;;;10.70;99.90;;;;;;4991673;28;20026;-81
2021/05/02 07:46:37;;;;;;;36.90;24.63;;;10.90;99.90;;;;;;4990937;28;20026;-82
2021/05/02 07:49:03;;;;;;;36.28;24.15;;;10.90;99.90;;;;;;4991008;28;20030;-82
2021/05/02 07:51:28;;;;;;;36.35;24.45;;;11.00;99.90;;;;;;4992012;28;20160;-82
2021/05/02 07:53:54;;;;;;;36.40;25.17;;;10.70;99.90;;;;;;4993135;28;20076;-81
2021/05/02 07:56:19;;;;;;;41.03;25.60;;;10.80;99.90;;;;;;5027008;28;20076;-81
2021/05/02 07:58:45;;;;;;;33.58;24.83;;;11.00;99.90;;;;;;5026853;28;20022;-81
2021/05/02 08:01:11;;;;;;;38.90;25.80;;;11.00;99.90;;;;;;5026925;28;20437;-81
2021/05/02 08:03:36;;;;;;;31.80;22.52;;;10.80;99.90;;;;;;5010454;28;20058;-81
2021/05/02 08:06:02;;;;;;;39.10;24.73;;;10.80;99.90;;;;;;5011170;28;20072;-82
2021/05/02 08:08:28;;;;;;;33.92;24.05;;;10.90;99.90;;;;;;5011704;28;20060;-81
2021/05/02 08:10:54;;;;;;;32.42;22.58;;;11.00;99.90;;;;;;5011736;28;20589;-81
2021/05/02 08:13:20;;;;;;;30.52;21.77;;;11.00;99.90;;;;;;5026773;28;20061;-81
2021/05/02 08:15:46;;;;;;;32.35;22.40;;;11.20;99.90;;;;;;5026141;28;20057;-82
2021/05/02 08:18:13;;;;;;;32.03;22.35;;;11.20;99.90;;;;;;5011447;28;20026;-81
2021/05/02 08:20:39;;;;;;;28.15;21.23;;;11.10;99.90;;;;;;5011623;28;20092;-82
2021/05/02 08:23:05;;;;;;;30.58;21.52;;;11.10;99.90;;;;;;5011390;28;20038;-82
2021/05/02 08:25:30;;;;;;;36.70;23.25;;;11.20;99.90;;;;;;5009546;28;20029;-82
2021/05/02 08:27:56;;;;;;;34.05;23.90;;;11.10;99.90;;;;;;5010359;28;20497;-82
2021/05/02 08:30:22;;;;;;;30.20;22.65;;;11.10;99.90;;;;;;5027081;28;20406;-82
2021/05/02 08:32:47;;;;;;;27.65;20.73;;;11.20;99.90;;;;;;5026906;28;20834;-82
2021/05/02 08:35:14;;;;;;;39.38;26.23;;;11.10;99.90;;;;;;5010774;28;20022;-82
2021/05/02 08:37:40;;;;;;;34.10;23.40;;;11.30;99.90;;;;;;5011044;28;20047;-82
2021/05/02 08:40:07;;;;;;;33.53;24.00;;;11.30;99.90;;;;;;5010118;28;20022;-81
2021/05/02 08:42:33;;;;;;;30.15;20.52;;;11.30;99.90;;;;;;5011318;28;20032;-82
2021/05/02 08:44:59;;;;;;;28.75;21.20;;;11.40;99.90;;;;;;5025902;28;20021;-82
2021/05/02 08:47:25;;;;;;;26.00;18.83;;;11.40;99.90;;;;;;5026443;28;20486;-82
2021/05/02 08:49:51;;;;;;;33.80;19.45;;;11.40;99.90;;;;;;5011338;28;20029;-82
2021/05/02 08:52:16;;;;;;;26.52;18.08;;;11.30;99.90;;;;;;5011247;28;20410;-81
2021/05/02 08:54:42;;;;;;;23.42;17.17;;;11.30;99.90;;;;;;5026298;28;20056;-82
2021/05/02 08:57:08;;;;;;;31.75;17.30;;;11.20;99.90;;;;;;5014949;28;20083;-82
2021/05/02 08:59:33;;;;;;;102.57;45.88;;;11.20;99.90;;;;;;5013598;28;20356;-82
2021/05/02 09:01:59;;;;;;;29.60;21.70;;;11.40;99.90;;;;;;5029080;28;20550;-83
2021/05/02 09:04:25;;;;;;;27.48;20.27;;;11.50;99.90;;;;;;5014222;28;20096;-83
2021/05/02 09:06:51;;;;;;;29.35;20.77;;;11.60;99.90;;;;;;5031655;28;20049;-83
2021/05/02 09:09:17;;;;;;;30.73;21.50;;;11.60;99.90;;;;;;5014378;28;20037;-83
2021/05/02 09:11:44;;;;;;;119.80;52.88;;;11.60;99.90;;;;;;5005810;28;20038;-81
2021/05/02 09:14:29;;;;;;;32.30;22.77;;;11.70;99.90;;;;;;5005947;28;20482;-82
2021/05/02 09:16:58;;;;;;;31.08;21.55;;;11.70;99.90;;;;;;5013359;28;20026;-82
2021/05/02 09:19:25;;;;;;;31.15;21.92;;;11.70;99.90;;;;;;5013160;28;20075;-82
2021/05/02 09:21:52;;;;;;;33.50;21.67;;;11.60;99.90;;;;;;5012902;28;20022;-83
2021/05/02 09:24:33;;;;;;;30.40;22.00;;;11.50;99.90;;;;;;5012509;28;20045;-83
2021/05/02 09:27:16;;;;;;;31.38;22.00;;;11.60;99.90;;;;;;5014396;28;20064;-84
2021/05/02 09:29:44;;;;;;;29.65;20.98;;;11.60;99.90;;;;;;5014310;28;20048;-84
2021/05/02 09:32:11;;;;;;;30.85;21.13;;;11.50;99.90;;;;;;5013045;28;20018;-84
2021/05/02 09:34:37;;;;;;;31.83;22.33;;;11.50;99.90;;;;;;5012012;28;20505;-83
2021/05/02 09:37:08;;;;;;;32.30;23.73;;;11.50;99.90;;;;;;5014442;28;20032;-84
2021/05/02 09:39:53;;;;;;;33.35;22.67;;;11.50;99.90;;;;;;5014178;28;20025;-83
2021/05/02 09:42:20;;;;;;;38.65;24.23;;;11.50;99.90;;;;;;5014086;28;20033;-83
2021/05/02 09:44:56;;;;;;;34.97;24.10;;;11.40;99.90;;;;;;5013451;28;20026;-82
2021/05/02 09:47:36;;;;;;;33.38;23.20;;;11.50;99.90;;;;;;5010050;28;20032;-82
2021/05/02 09:50:16;;;;;;;32.13;21.90;;;11.60;99.90;;;;;;5009743;28;20109;-82
2021/05/02 09:52:46;;;;;;;33.20;22.70;;;11.80;99.90;;;;;;5013759;28;20022;-83
2021/05/02 09:55:32;;;;;;;38.13;27.40;;;12.00;99.90;;;;;;5010979;28;20040;-81
2021/05/02 09:58:08;;;;;;;33.60;23.77;;;12.00;99.90;;;;;;5013576;28;20034;-83
2021/05/02 10:00:36;;;;;;;62.08;42.78;;;11.90;99.90;;;;;;5028951;28;20030;-82
2021/05/02 10:03:05;;;;;;;49.47;31.60;;;11.90;99.90;;;;;;5028120;28;20022;-83
2021/05/02 10:05:31;;;;;;;44.28;23.38;;;11.90;99.90;;;;;;5009605;28;20030;-82
2021/05/02 10:07:57;;;;;;;33.45;22.27;;;11.80;99.90;;;;;;5004127;28;20428;-82
2021/05/02 10:10:23;;;;;;;34.42;24.48;;;12.10;99.90;;;;;;4992794;28;20568;-82
2021/05/02 10:12:51;;;;;;;30.65;21.63;;;12.20;99.90;;;;;;4994011;28;20023;-82
2021/05/02 10:15:18;;;;;;;47.67;28.17;;;12.20;99.90;;;;;;4992642;28;20023;-82
2021/05/02 10:17:45;;;;;;;31.35;22.67;;;12.20;99.90;;;;;;5009066;28;20018;-80
2021/05/02 10:20:13;;;;;;;39.47;26.92;;;12.30;99.90;;;;;;4993712;28;20018;-83
2021/05/02 10:22:39;;;;;;;31.27;22.25;;;12.10;99.90;;;;;;4992185;28;20030;-82
2021/05/02 10:25:05;;;;;;;31.52;22.23;;;12.20;99.90;;;;;;4991963;28;20117;-85
2021/05/02 10:27:31;;;;;;;38.28;22.58;;;12.20;99.90;;;;;;4991285;28;20054;-83
2021/05/02 10:29:58;;;;;;;30.10;22.20;;;12.30;99.90;;;;;;4993428;28;20114;-82
2021/05/02 10:32:34;;;;;;;35.08;23.85;;;12.10;99.90;;;;;;4993805;28;20018;-82
2021/05/02 10:35:09;;;;;;;36.22;25.30;;;11.90;99.90;;;;;;4991905;28;20486;-82
2021/05/02 10:37:37;;;;;;;36.15;26.08;;;11.70;99.90;;;;;;4992044;28;20066;-83
2021/05/02 10:40:06;;;;;;;37.17;26.65;;;11.60;99.90;;;;;;4992211;28;20483;-83
2021/05/02 10:42:40;;;;;;;37.83;25.90;;;11.60;99.90;;;;;;4992435;28;20022;-83
2021/05/02 10:45:27;;;;;;;35.30;25.13;;;11.50;99.90;;;;;;4992750;28;20498;-82
2021/05/02 10:47:57;;;;;;;34.53;24.83;;;11.40;99.90;;;;;;4991984;28;20026;-83
2021/05/02 10:50:41;;;;;;;37.67;26.15;;;11.60;99.90;;;;;;4992104;28;20045;-83
2021/05/02 10:53:08;;;;;;;36.47;24.25;;;11.70;99.90;;;;;;4993523;28;20045;-83
2021/05/02 10:55:46;;;;;;;31.30;22.90;;;11.70;99.90;;;;;;5006529;28;20032;-83
2021/05/02 10:58:26;;;;;;;31.23;22.17;;;11.70;99.90;;;;;;5012953;28;20026;-83
2021/05/02 11:00:54;;;;;;;35.08;23.75;;;11.70;99.90;;;;;;5012872;28;20104;-84
2021/05/02 11:03:38;;;;;;;31.80;22.15;;;11.70;99.90;;;;;;5012829;28;20041;-84
2021/05/02 11:06:14;;;;;;;40.38;23.63;;;11.50;99.90;;;;;;5027439;28;20052;-84
2021/05/02 11:08:53;;;;;;;34.97;23.30;;;11.60;99.90;;;;;;5012785;28;20057;-84
2021/05/02 11:11:31;;;;;;;40.72;25.08;;;11.70;99.90;;;;;;5012487;28;20112;-84
2021/05/02 11:16:39;;;;;;;36.22;23.88;;;11.80;99.90;;;;;;5012793;28;20030;-82
2021/05/02 11:19:07;;;;;;;37.17;23.55;;;12.00;99.90;;;;;;5027221;28;20108;-81
2021/05/02 11:21:51;;;;;;;37.40;25.58;;;12.00;99.90;;;;;;5027020;28;20034;-83
2021/05/02 11:24:17;;;;;;;40.30;25.67;;;12.30;99.90;;;;;;5026841;28;20022;-83
2021/05/02 11:29:50;;;;;;;105.85;65.38;;;13.00;99.90;;;;;;5012236;28;20160;-84
2021/05/02 11:32:28;;;;;;;32.92;22.77;;;13.50;99.90;;;;;;5002778;28;20044;-84
2021/05/02 11:34:54;;;;;;;27.15;19.35;;;14.00;99.90;;;;;;5026468;28;20057;-83
2021/05/02 11:38:00;;;;;;;27.15;19.25;;;14.10;99.90;;;;;;5011968;28;20022;-84
2021/05/02 11:40:32;;;;;;;31.40;20.17;;;13.90;99.90;;;;;;5010485;28;20026;-80
2021/05/02 11:43:24;;;;;;;29.73;19.60;;;14.30;99.90;;;;;;5012069;28;20022;-82
2021/05/02 11:45:53;;;;;;;28.98;18.90;;;14.60;99.90;;;;;;5011476;28;20037;-82
2021/05/02 11:48:32;;;;;;;30.60;20.50;;;14.40;99.90;;;;;;5027054;28;20105;-81
2021/05/02 11:51:04;;;;;;;50.13;32.45;;;14.10;99.90;;;;;;5011713;28;20025;-82
2021/05/02 11:53:43;;;;;;;27.77;18.45;;;13.60;99.90;;;;;;5011875;28;20479;-81
2021/05/02 11:56:10;;;;;;;28.50;20.40;;;13.20;99.90;;;;;;5011953;28;20096;-81
2021/05/02 11:58:35;;;;;;;18.27;14.02;;;12.70;99.90;;;;;;5010968;28;20029;-83
2021/05/02 12:01:01;;;;;;;27.58;20.33;;;12.40;99.90;;;;;;5026991;28;20386;-82
2021/05/02 12:03:37;;;;;;;35.08;17.85;;;12.30;99.90;;;;;;5011634;28;20026;-83
2021/05/02 12:06:04;;;;;;;23.15;17.27;;;12.10;99.90;;;;;;5011132;28;20030;-82
2021/05/02 12:08:31;;;;;;;23.60;16.55;;;12.10;99.90;;;;;;5011841;28;20058;-82
2021/05/02 12:11:04;;;;;;;31.85;21.98;;;12.00;99.90;;;;;;5011734;28;20026;-82
2021/05/02 12:13:43;;;;;;;19.15;14.25;;;11.90;99.90;;;;;;5011692;28;20041;-82
2021/05/02 12:16:14;;;;;;;24.67;15.38;;;11.80;99.90;;;;;;5011646;28;20030;-82
2021/05/02 12:18:48;;;;;;;28.75;18.10;;;11.60;99.90;;;;;;5011641;28;20032;-83
2021/05/02 12:21:45;;;;;;;23.17;17.15;;;11.90;99.90;;;;;;5011559;28;20478;-83
2021/05/02 12:24:26;;;;;;;26.42;19.77;;;11.90;99.90;;;;;;5025961;28;20061;-83
2021/05/02 12:26:57;;;;;;;23.95;15.30;;;12.00;99.90;;;;;;5026869;28;20060;-83
2021/05/02 12:29:25;;;;;;;18.23;13.23;;;12.10;99.90;;;;;;5011570;28;20028;-82
2021/05/02 12:31:56;;;;;;;18.83;12.48;;;13.10;99.90;;;;;;5015377;28;20025;-82
2021/05/02 12:34:25;;;;;;;19.20;13.05;;;13.70;99.90;;;;;;5014688;28;20438;-82
2021/05/02 12:36:51;;;;;;;17.30;12.88;;;13.90;99.90;;;;;;5015140;28;20026;-82
2021/05/02 12:39:17;;;;;;;20.38;10.63;;;14.30;99.90;;;;;;5015353;28;20022;-82
2021/05/02 12:41:42;;;;;;;18.58;11.23;;;13.90;99.90;;;;;;5030494;28;20022;-82
2021/05/02 12:44:17;;;;;;;19.23;11.85;;;12.80;99.90;;;;;;5014373;28;20025;-81
2021/05/02 12:46:53;;;;;;;14.38;10.25;;;12.10;99.90;;;;;;5030257;28;20026;-81
2021/05/02 12:49:23;;;;;;;15.50;10.45;;;11.60;99.90;;;;;;5015108;28;20025;-81